CheckWX is a tool to help pilots better visualize weather data.  It is not intended as a substitute for an official pre-flight weather briefing.

12:25:38 UTC

LSZB TAF
Bern Belp Airport
Bern, Switzerland
TAF LSZB 221125Z 2212/2221 VRB03KT CAVOK

Mar-22@
12:00 UTC

Mar-22 @ 12:00 UTC

Mar-22@
21:00 UTC

Mar-22 @ 21:00 UTC

TAF LSZB 221125Z 2212/2221 VRB03KT CAVOK
Wind
  • Variable at 3 KTS
Conditions
No significant weather
Cloud Levels
  • No significant clouds